الصفحة الرئيسية
METAR-TAF:

METAR-TAF

مطار :

Wajima, اليابان

دائرة عرض: 37-17-36N, خط طول: 136-57-44E, ارتفاع: 219 متر

مراقبة الطقس الحالي

تاريخ ووقت الإصدار 45 دقيقة قبل الساعة 01:00UTC
ريح 18 عقدة من الغرب/الجنوب الغربي تتزايد حتى 30 عقدة
درجة الحرارة 23°درجة مئوية
الرطوبة 89%
ضغط 1008 hPa
الرؤية 10 كم أو أكثر
غيوم قليلة على ارتفاع 1000 قدم
غيوم مفككة على ارتفاع 1300 قدم
غيوم مفككة على ارتفاع 1500 قدم
زخات في الجوار,

METAR: RJNW 250100Z 24018G30KT 9999 VCSH FEW010 BKN013 BKN015 23/21 Q1008

زمن: 10:45 (01:45 UTC)


TAF: مفقودة

أرصاد الطقس والتوقعات من أكثر من 4000 مطار (تقارير الطقس للمطار METAR والتنبؤ بالطقس بالمطارTAF).

المحطات المتاحة هي النقط الصفراء والحمراء على الخريطة.

حرك المؤشر فوق النقطة لمعرفة اسم المحطة.

ثم انقر لمعرفة أرصاد وتوقعات الطقس.

لتغيير الخارطة: اضغط على الأزرار الخضراء مع رمز الصليب الأسود للتكبير. على الزر الأخضر مع شرطة للتصغير، أو على الأسهم الخضراء للخرائط المجاورة.


METAR-TAF: